sensor_id;sensor_type;location;lat;lon;timestamp;P1;durP1;ratioP1;P2;durP2;ratioP2
59271;SDS011;45043;51.068;7.026;2022-07-03T00:01:58;3.47;;;1.97;;
59271;SDS011;45043;51.068;7.026;2022-07-03T00:04:59;5.83;;;2.03;;
59271;SDS011;45043;51.068;7.026;2022-07-03T00:07:59;2.77;;;1.87;;
59271;SDS011;45043;51.068;7.026;2022-07-03T00:11:00;4.93;;;2.30;;
59271;SDS011;45043;51.068;7.026;2022-07-03T00:14:00;4.00;;;2.20;;
59271;SDS011;45043;51.068;7.026;2022-07-03T00:17:01;4.87;;;2.00;;
59271;SDS011;45043;51.068;7.026;2022-07-03T00:20:01;6.33;;;2.43;;
59271;SDS011;45043;51.068;7.026;2022-07-03T00:23:02;2.43;;;2.10;;
59271;SDS011;45043;51.068;7.026;2022-07-03T00:26:15;3.30;;;2.20;;
59271;SDS011;45043;51.068;7.026;2022-07-03T00:29:25;2.20;;;2.00;;
59271;SDS011;45043;51.068;7.026;2022-07-03T00:32:32;3.20;;;2.30;;
59271;SDS011;45043;51.068;7.026;2022-07-03T00:35:38;2.53;;;2.20;;
59271;SDS011;45043;51.068;7.026;2022-07-03T00:38:44;4.30;;;2.10;;
59271;SDS011;45043;51.068;7.026;2022-07-03T00:41:45;4.60;;;2.40;;
59271;SDS011;45043;51.068;7.026;2022-07-03T00:44:47;4.20;;;1.80;;
59271;SDS011;45043;51.068;7.026;2022-07-03T00:47:48;4.37;;;2.23;;
59271;SDS011;45043;51.068;7.026;2022-07-03T00:50:51;2.47;;;1.93;;
59271;SDS011;45043;51.068;7.026;2022-07-03T00:53:54;4.30;;;1.80;;
59271;SDS011;45043;51.068;7.026;2022-07-03T00:56:57;4.63;;;1.90;;
59271;SDS011;45043;51.068;7.026;2022-07-03T01:00:00;5.10;;;2.17;;
59271;SDS011;45043;51.068;7.026;2022-07-03T01:03:13;3.93;;;2.00;;
59271;SDS011;45043;51.068;7.026;2022-07-03T01:06:17;4.10;;;1.90;;
59271;SDS011;45043;51.068;7.026;2022-07-03T01:09:17;3.67;;;2.20;;
59271;SDS011;45043;51.068;7.026;2022-07-03T01:12:27;5.17;;;2.20;;
59271;SDS011;45043;51.068;7.026;2022-07-03T01:28:36;4.77;;;1.90;;
59271;SDS011;45043;51.068;7.026;2022-07-03T01:31:40;4.73;;;1.90;;
59271;SDS011;45043;51.068;7.026;2022-07-03T01:34:43;4.43;;;2.00;;
59271;SDS011;45043;51.068;7.026;2022-07-03T01:37:47;3.30;;;2.03;;
59271;SDS011;45043;51.068;7.026;2022-07-03T01:40:48;5.37;;;2.27;;
59271;SDS011;45043;51.068;7.026;2022-07-03T01:43:55;3.87;;;2.10;;
59271;SDS011;45043;51.068;7.026;2022-07-03T01:46:57;3.93;;;2.30;;
59271;SDS011;45043;51.068;7.026;2022-07-03T01:49:59;3.97;;;2.80;;
59271;SDS011;45043;51.068;7.026;2022-07-03T01:53:02;4.20;;;2.57;;
59271;SDS011;45043;51.068;7.026;2022-07-03T01:56:03;6.07;;;2.57;;
59271;SDS011;45043;51.068;7.026;2022-07-03T01:59:06;5.67;;;3.10;;
59271;SDS011;45043;51.068;7.026;2022-07-03T02:05:44;3.87;;;2.40;;
59271;SDS011;45043;51.068;7.026;2022-07-03T02:08:50;3.83;;;2.53;;
59271;SDS011;45043;51.068;7.026;2022-07-03T02:12:02;4.67;;;2.40;;
59271;SDS011;45043;51.068;7.026;2022-07-03T02:15:07;4.63;;;2.50;;
59271;SDS011;45043;51.068;7.026;2022-07-03T02:18:31;4.73;;;2.60;;
59271;SDS011;45043;51.068;7.026;2022-07-03T02:21:35;4.37;;;2.67;;
59271;SDS011;45043;51.068;7.026;2022-07-03T02:24:43;5.20;;;2.60;;
59271;SDS011;45043;51.068;7.026;2022-07-03T02:28:01;3.40;;;2.40;;
59271;SDS011;45043;51.068;7.026;2022-07-03T02:31:06;5.40;;;2.90;;
59271;SDS011;45043;51.068;7.026;2022-07-03T02:34:13;3.20;;;2.50;;
59271;SDS011;45043;51.068;7.026;2022-07-03T02:37:17;2.90;;;2.43;;
59271;SDS011;45043;51.068;7.026;2022-07-03T02:47:03;4.00;;;2.60;;
59271;SDS011;45043;51.068;7.026;2022-07-03T02:50:12;4.10;;;2.50;;
59271;SDS011;45043;51.068;7.026;2022-07-03T02:53:28;4.60;;;2.80;;
59271;SDS011;45043;51.068;7.026;2022-07-03T03:00:13;3.50;;;2.60;;
59271;SDS011;45043;51.068;7.026;2022-07-03T03:03:14;3.37;;;2.80;;
59271;SDS011;45043;51.068;7.026;2022-07-03T03:06:17;4.93;;;2.63;;
59271;SDS011;45043;51.068;7.026;2022-07-03T03:09:24;4.17;;;2.30;;
59271;SDS011;45043;51.068;7.026;2022-07-03T03:12:36;3.23;;;2.77;;
59271;SDS011;45043;51.068;7.026;2022-07-03T03:15:38;4.90;;;2.33;;
59271;SDS011;45043;51.068;7.026;2022-07-03T03:18:44;3.53;;;2.60;;
59271;SDS011;45043;51.068;7.026;2022-07-03T03:21:57;4.40;;;2.87;;
59271;SDS011;45043;51.068;7.026;2022-07-03T03:25:04;4.13;;;2.67;;
59271;SDS011;45043;51.068;7.026;2022-07-03T03:28:04;3.33;;;2.73;;
59271;SDS011;45043;51.068;7.026;2022-07-03T03:31:05;6.13;;;2.60;;
59271;SDS011;45043;51.068;7.026;2022-07-03T03:34:08;8.83;;;2.90;;
59271;SDS011;45043;51.068;7.026;2022-07-03T03:37:10;2.83;;;2.53;;
59271;SDS011;45043;51.068;7.026;2022-07-03T03:40:10;2.97;;;2.53;;
59271;SDS011;45043;51.068;7.026;2022-07-03T03:43:12;3.17;;;2.80;;
59271;SDS011;45043;51.068;7.026;2022-07-03T03:46:12;5.67;;;2.80;;
59271;SDS011;45043;51.068;7.026;2022-07-03T03:49:14;2.73;;;2.40;;
59271;SDS011;45043;51.068;7.026;2022-07-03T03:52:15;3.93;;;2.67;;
59271;SDS011;45043;51.068;7.026;2022-07-03T03:55:16;5.73;;;2.57;;
59271;SDS011;45043;51.068;7.026;2022-07-03T03:58:17;3.30;;;2.60;;
59271;SDS011;45043;51.068;7.026;2022-07-03T04:01:17;3.10;;;2.80;;
59271;SDS011;45043;51.068;7.026;2022-07-03T04:04:17;4.13;;;2.60;;
59271;SDS011;45043;51.068;7.026;2022-07-03T04:07:19;3.03;;;2.37;;
59271;SDS011;45043;51.068;7.026;2022-07-03T04:10:19;2.60;;;2.33;;
59271;SDS011;45043;51.068;7.026;2022-07-03T04:13:20;2.93;;;2.33;;
59271;SDS011;45043;51.068;7.026;2022-07-03T04:16:20;3.73;;;2.60;;
59271;SDS011;45043;51.068;7.026;2022-07-03T04:19:21;2.80;;;2.50;;
59271;SDS011;45043;51.068;7.026;2022-07-03T04:22:23;4.57;;;2.53;;
59271;SDS011;45043;51.068;7.026;2022-07-03T04:25:23;3.67;;;2.37;;
59271;SDS011;45043;51.068;7.026;2022-07-03T04:28:24;4.83;;;2.33;;
59271;SDS011;45043;51.068;7.026;2022-07-03T04:31:25;2.73;;;2.20;;
59271;SDS011;45043;51.068;7.026;2022-07-03T04:34:26;4.53;;;2.30;;
59271;SDS011;45043;51.068;7.026;2022-07-03T04:37:26;2.67;;;2.43;;
59271;SDS011;45043;51.068;7.026;2022-07-03T04:40:27;2.47;;;2.27;;
59271;SDS011;45043;51.068;7.026;2022-07-03T04:43:27;3.07;;;2.57;;
59271;SDS011;45043;51.068;7.026;2022-07-03T04:46:28;4.43;;;2.30;;
59271;SDS011;45043;51.068;7.026;2022-07-03T04:49:28;4.93;;;2.40;;
59271;SDS011;45043;51.068;7.026;2022-07-03T04:52:28;2.77;;;2.50;;
59271;SDS011;45043;51.068;7.026;2022-07-03T04:55:29;3.90;;;2.30;;
59271;SDS011;45043;51.068;7.026;2022-07-03T04:58:29;3.67;;;2.57;;
59271;SDS011;45043;51.068;7.026;2022-07-03T05:01:30;4.80;;;2.67;;
59271;SDS011;45043;51.068;7.026;2022-07-03T05:04:30;4.17;;;2.53;;
59271;SDS011;45043;51.068;7.026;2022-07-03T05:07:31;2.80;;;2.60;;
59271;SDS011;45043;51.068;7.026;2022-07-03T05:10:31;5.17;;;2.77;;
59271;SDS011;45043;51.068;7.026;2022-07-03T05:13:32;2.93;;;2.57;;
59271;SDS011;45043;51.068;7.026;2022-07-03T05:16:33;4.23;;;2.57;;
59271;SDS011;45043;51.068;7.026;2022-07-03T05:19:33;3.53;;;2.33;;
59271;SDS011;45043;51.068;7.026;2022-07-03T05:22:34;6.63;;;2.53;;
59271;SDS011;45043;51.068;7.026;2022-07-03T05:25:34;5.70;;;2.50;;
59271;SDS011;45043;51.068;7.026;2022-07-03T05:28:35;5.40;;;2.80;;
59271;SDS011;45043;51.068;7.026;2022-07-03T05:31:35;4.43;;;2.73;;
59271;SDS011;45043;51.068;7.026;2022-07-03T05:34:36;3.20;;;2.57;;
59271;SDS011;45043;51.068;7.026;2022-07-03T05:37:36;4.00;;;2.80;;
59271;SDS011;45043;51.068;7.026;2022-07-03T05:40:37;4.53;;;2.60;;
59271;SDS011;45043;51.068;7.026;2022-07-03T05:43:38;6.70;;;2.70;;
59271;SDS011;45043;51.068;7.026;2022-07-03T05:46:38;5.63;;;2.70;;
59271;SDS011;45043;51.068;7.026;2022-07-03T05:49:38;6.87;;;3.43;;
59271;SDS011;45043;51.068;7.026;2022-07-03T05:52:39;5.23;;;3.00;;
59271;SDS011;45043;51.068;7.026;2022-07-03T05:55:39;5.77;;;3.40;;
59271;SDS011;45043;51.068;7.026;2022-07-03T05:58:40;6.23;;;3.30;;
59271;SDS011;45043;51.068;7.026;2022-07-03T06:01:41;5.93;;;2.77;;
59271;SDS011;45043;51.068;7.026;2022-07-03T06:04:41;4.73;;;2.83;;
59271;SDS011;45043;51.068;7.026;2022-07-03T06:07:42;3.33;;;2.70;;
59271;SDS011;45043;51.068;7.026;2022-07-03T06:10:42;6.93;;;3.27;;
59271;SDS011;45043;51.068;7.026;2022-07-03T06:13:43;4.90;;;3.40;;
59271;SDS011;45043;51.068;7.026;2022-07-03T06:16:44;3.37;;;2.90;;
59271;SDS011;45043;51.068;7.026;2022-07-03T06:19:44;5.77;;;3.03;;
59271;SDS011;45043;51.068;7.026;2022-07-03T06:22:45;4.27;;;3.17;;
59271;SDS011;45043;51.068;7.026;2022-07-03T06:25:45;6.07;;;3.13;;
59271;SDS011;45043;51.068;7.026;2022-07-03T06:28:46;6.80;;;3.80;;
59271;SDS011;45043;51.068;7.026;2022-07-03T06:31:46;3.97;;;3.20;;
59271;SDS011;45043;51.068;7.026;2022-07-03T06:34:47;4.30;;;3.60;;
59271;SDS011;45043;51.068;7.026;2022-07-03T06:37:48;4.93;;;3.33;;
59271;SDS011;45043;51.068;7.026;2022-07-03T06:40:48;4.43;;;3.40;;
59271;SDS011;45043;51.068;7.026;2022-07-03T06:43:49;6.17;;;3.23;;
59271;SDS011;45043;51.068;7.026;2022-07-03T06:46:49;10.20;;;3.87;;
59271;SDS011;45043;51.068;7.026;2022-07-03T06:49:50;4.87;;;3.30;;
59271;SDS011;45043;51.068;7.026;2022-07-03T06:52:50;10.57;;;4.07;;
59271;SDS011;45043;51.068;7.026;2022-07-03T06:55:51;5.17;;;3.97;;
59271;SDS011;45043;51.068;7.026;2022-07-03T06:58:51;7.17;;;4.07;;
59271;SDS011;45043;51.068;7.026;2022-07-03T07:01:52;9.17;;;3.87;;
59271;SDS011;45043;51.068;7.026;2022-07-03T07:04:53;6.33;;;3.93;;
59271;SDS011;45043;51.068;7.026;2022-07-03T07:07:53;10.60;;;4.43;;
59271;SDS011;45043;51.068;7.026;2022-07-03T07:10:54;7.43;;;4.20;;
59271;SDS011;45043;51.068;7.026;2022-07-03T07:13:54;11.50;;;4.07;;
59271;SDS011;45043;51.068;7.026;2022-07-03T07:16:54;6.23;;;3.80;;
59271;SDS011;45043;51.068;7.026;2022-07-03T07:19:58;5.20;;;3.60;;
59271;SDS011;45043;51.068;7.026;2022-07-03T07:23:01;5.53;;;3.13;;
59271;SDS011;45043;51.068;7.026;2022-07-03T07:26:02;5.33;;;4.03;;
59271;SDS011;45043;51.068;7.026;2022-07-03T07:29:04;3.87;;;3.10;;
59271;SDS011;45043;51.068;7.026;2022-07-03T07:32:04;4.70;;;3.30;;
59271;SDS011;45043;51.068;7.026;2022-07-03T07:35:05;6.77;;;3.90;;
59271;SDS011;45043;51.068;7.026;2022-07-03T07:38:06;5.63;;;3.43;;
59271;SDS011;45043;51.068;7.026;2022-07-03T07:41:07;5.30;;;3.30;;
59271;SDS011;45043;51.068;7.026;2022-07-03T07:44:08;5.00;;;3.30;;
59271;SDS011;45043;51.068;7.026;2022-07-03T07:47:08;5.97;;;3.40;;
59271;SDS011;45043;51.068;7.026;2022-07-03T07:50:09;10.90;;;3.83;;
59271;SDS011;45043;51.068;7.026;2022-07-03T07:53:10;6.13;;;4.10;;
59271;SDS011;45043;51.068;7.026;2022-07-03T07:56:11;5.80;;;3.80;;
59271;SDS011;45043;51.068;7.026;2022-07-03T07:59:11;5.73;;;3.63;;
59271;SDS011;45043;51.068;7.026;2022-07-03T08:02:12;4.67;;;3.87;;
59271;SDS011;45043;51.068;7.026;2022-07-03T08:05:31;8.40;;;4.40;;
59271;SDS011;45043;51.068;7.026;2022-07-03T08:08:38;9.47;;;4.20;;
59271;SDS011;45043;51.068;7.026;2022-07-03T08:11:38;6.87;;;3.80;;
59271;SDS011;45043;51.068;7.026;2022-07-03T08:14:39;6.40;;;3.80;;
59271;SDS011;45043;51.068;7.026;2022-07-03T08:17:40;5.17;;;3.80;;
59271;SDS011;45043;51.068;7.026;2022-07-03T08:20:40;6.83;;;3.93;;
59271;SDS011;45043;51.068;7.026;2022-07-03T08:23:40;7.43;;;4.43;;
59271;SDS011;45043;51.068;7.026;2022-07-03T08:26:41;5.47;;;3.97;;
59271;SDS011;45043;51.068;7.026;2022-07-03T08:29:42;9.80;;;3.80;;
59271;SDS011;45043;51.068;7.026;2022-07-03T08:32:46;8.83;;;4.70;;
59271;SDS011;45043;51.068;7.026;2022-07-03T08:35:48;7.20;;;4.13;;
59271;SDS011;45043;51.068;7.026;2022-07-03T08:38:49;6.07;;;3.87;;
59271;SDS011;45043;51.068;7.026;2022-07-03T08:41:49;5.13;;;3.63;;
59271;SDS011;45043;51.068;7.026;2022-07-03T08:44:51;4.67;;;4.03;;
59271;SDS011;45043;51.068;7.026;2022-07-03T08:47:55;5.67;;;3.70;;
59271;SDS011;45043;51.068;7.026;2022-07-03T08:50:57;6.87;;;3.80;;
59271;SDS011;45043;51.068;7.026;2022-07-03T08:54:00;5.33;;;4.10;;
59271;SDS011;45043;51.068;7.026;2022-07-03T08:57:03;7.90;;;3.60;;
59271;SDS011;45043;51.068;7.026;2022-07-03T09:00:06;6.70;;;3.80;;
59271;SDS011;45043;51.068;7.026;2022-07-03T09:03:09;7.00;;;4.23;;
59271;SDS011;45043;51.068;7.026;2022-07-03T09:06:11;6.73;;;4.10;;
59271;SDS011;45043;51.068;7.026;2022-07-03T09:09:14;6.13;;;4.60;;
59271;SDS011;45043;51.068;7.026;2022-07-03T09:12:14;5.33;;;4.10;;
59271;SDS011;45043;51.068;7.026;2022-07-03T09:15:15;6.67;;;3.97;;
59271;SDS011;45043;51.068;7.026;2022-07-03T09:18:16;6.57;;;3.90;;
59271;SDS011;45043;51.068;7.026;2022-07-03T09:21:16;4.83;;;4.33;;
59271;SDS011;45043;51.068;7.026;2022-07-03T09:24:17;6.83;;;4.50;;
59271;SDS011;45043;51.068;7.026;2022-07-03T09:27:18;5.77;;;4.13;;
59271;SDS011;45043;51.068;7.026;2022-07-03T09:30:20;7.00;;;4.33;;
59271;SDS011;45043;51.068;7.026;2022-07-03T09:33:20;4.67;;;3.77;;
59271;SDS011;45043;51.068;7.026;2022-07-03T09:36:22;6.07;;;4.27;;
59271;SDS011;45043;51.068;7.026;2022-07-03T09:39:39;7.93;;;3.90;;
59271;SDS011;45043;51.068;7.026;2022-07-03T09:42:39;7.00;;;3.33;;
59271;SDS011;45043;51.068;7.026;2022-07-03T09:45:53;4.37;;;3.57;;
59271;SDS011;45043;51.068;7.026;2022-07-03T09:48:55;4.80;;;3.70;;
59271;SDS011;45043;51.068;7.026;2022-07-03T09:51:56;5.40;;;4.20;;
59271;SDS011;45043;51.068;7.026;2022-07-03T09:54:58;5.17;;;3.60;;
59271;SDS011;45043;51.068;7.026;2022-07-03T09:57:59;4.80;;;3.97;;
59271;SDS011;45043;51.068;7.026;2022-07-03T10:01:17;6.03;;;3.40;;
59271;SDS011;45043;51.068;7.026;2022-07-03T10:04:20;5.40;;;3.07;;
59271;SDS011;45043;51.068;7.026;2022-07-03T10:07:21;6.00;;;3.10;;
59271;SDS011;45043;51.068;7.026;2022-07-03T10:10:23;4.00;;;3.00;;
59271;SDS011;45043;51.068;7.026;2022-07-03T10:13:25;5.53;;;3.07;;
59271;SDS011;45043;51.068;7.026;2022-07-03T10:16:26;5.90;;;2.70;;
59271;SDS011;45043;51.068;7.026;2022-07-03T10:19:30;4.23;;;3.30;;
59271;SDS011;45043;51.068;7.026;2022-07-03T10:22:39;6.53;;;3.77;;
59271;SDS011;45043;51.068;7.026;2022-07-03T10:25:46;4.07;;;2.90;;
59271;SDS011;45043;51.068;7.026;2022-07-03T10:28:48;4.70;;;2.60;;
59271;SDS011;45043;51.068;7.026;2022-07-03T10:31:52;4.67;;;2.47;;
59271;SDS011;45043;51.068;7.026;2022-07-03T10:34:52;3.90;;;2.40;;
59271;SDS011;45043;51.068;7.026;2022-07-03T10:41:04;3.40;;;2.53;;
59271;SDS011;45043;51.068;7.026;2022-07-03T10:44:28;7.23;;;2.60;;
59271;SDS011;45043;51.068;7.026;2022-07-03T10:47:48;3.93;;;2.30;;
59271;SDS011;45043;51.068;7.026;2022-07-03T10:51:04;5.33;;;2.80;;
59271;SDS011;45043;51.068;7.026;2022-07-03T10:54:20;4.70;;;3.20;;
59271;SDS011;45043;51.068;7.026;2022-07-03T10:57:21;4.23;;;2.60;;
59271;SDS011;45043;51.068;7.026;2022-07-03T11:00:21;3.87;;;2.87;;
59271;SDS011;45043;51.068;7.026;2022-07-03T11:13:09;3.43;;;2.80;;
59271;SDS011;45043;51.068;7.026;2022-07-03T11:16:22;4.83;;;3.00;;
59271;SDS011;45043;51.068;7.026;2022-07-03T11:19:27;6.00;;;2.53;;
59271;SDS011;45043;51.068;7.026;2022-07-03T11:22:32;4.83;;;2.70;;
59271;SDS011;45043;51.068;7.026;2022-07-03T11:25:47;6.70;;;2.73;;
59271;SDS011;45043;51.068;7.026;2022-07-03T11:28:53;6.07;;;3.27;;
59271;SDS011;45043;51.068;7.026;2022-07-03T11:31:54;2.67;;;2.20;;
59271;SDS011;45043;51.068;7.026;2022-07-03T11:34:55;3.57;;;2.73;;
59271;SDS011;45043;51.068;7.026;2022-07-03T11:37:55;3.37;;;2.77;;
59271;SDS011;45043;51.068;7.026;2022-07-03T11:40:56;6.50;;;3.20;;
59271;SDS011;45043;51.068;7.026;2022-07-03T11:44:00;4.00;;;2.93;;
59271;SDS011;45043;51.068;7.026;2022-07-03T11:47:02;5.67;;;3.10;;
59271;SDS011;45043;51.068;7.026;2022-07-03T11:50:04;3.07;;;2.50;;
59271;SDS011;45043;51.068;7.026;2022-07-03T11:56:26;5.53;;;2.70;;
59271;SDS011;45043;51.068;7.026;2022-07-03T11:59:27;3.87;;;2.57;;
59271;SDS011;45043;51.068;7.026;2022-07-03T12:02:28;3.20;;;2.23;;
59271;SDS011;45043;51.068;7.026;2022-07-03T12:05:28;3.97;;;2.30;;
59271;SDS011;45043;51.068;7.026;2022-07-03T12:08:32;6.67;;;3.83;;
59271;SDS011;45043;51.068;7.026;2022-07-03T12:11:33;6.87;;;3.17;;
59271;SDS011;45043;51.068;7.026;2022-07-03T12:14:38;4.43;;;3.20;;
59271;SDS011;45043;51.068;7.026;2022-07-03T12:17:43;5.00;;;2.50;;
59271;SDS011;45043;51.068;7.026;2022-07-03T12:20:45;3.43;;;2.10;;
59271;SDS011;45043;51.068;7.026;2022-07-03T12:23:48;2.93;;;2.20;;
59271;SDS011;45043;51.068;7.026;2022-07-03T12:26:50;3.17;;;2.10;;
59271;SDS011;45043;51.068;7.026;2022-07-03T12:29:51;6.33;;;2.57;;
59271;SDS011;45043;51.068;7.026;2022-07-03T12:32:52;6.33;;;2.40;;
59271;SDS011;45043;51.068;7.026;2022-07-03T12:36:04;3.90;;;2.10;;
59271;SDS011;45043;51.068;7.026;2022-07-03T12:39:09;5.23;;;2.03;;
59271;SDS011;45043;51.068;7.026;2022-07-03T12:45:16;4.63;;;2.17;;
59271;SDS011;45043;51.068;7.026;2022-07-03T12:48:19;4.07;;;2.20;;
59271;SDS011;45043;51.068;7.026;2022-07-03T12:54:39;6.03;;;1.90;;
59271;SDS011;45043;51.068;7.026;2022-07-03T12:57:39;3.63;;;2.13;;
59271;SDS011;45043;51.068;7.026;2022-07-03T13:00:58;2.60;;;1.77;;
59271;SDS011;45043;51.068;7.026;2022-07-03T13:03:59;3.23;;;2.00;;
59271;SDS011;45043;51.068;7.026;2022-07-03T13:07:02;7.50;;;1.77;;
59271;SDS011;45043;51.068;7.026;2022-07-03T13:10:07;3.60;;;1.80;;
59271;SDS011;45043;51.068;7.026;2022-07-03T13:13:08;2.40;;;1.63;;
59271;SDS011;45043;51.068;7.026;2022-07-03T13:16:24;2.37;;;1.60;;
59271;SDS011;45043;51.068;7.026;2022-07-03T13:19:26;2.87;;;1.80;;
59271;SDS011;45043;51.068;7.026;2022-07-03T13:22:28;3.80;;;1.80;;
59271;SDS011;45043;51.068;7.026;2022-07-03T13:25:29;2.40;;;1.40;;
59271;SDS011;45043;51.068;7.026;2022-07-03T13:28:30;2.93;;;1.40;;
59271;SDS011;45043;51.068;7.026;2022-07-03T13:31:30;2.70;;;1.80;;
59271;SDS011;45043;51.068;7.026;2022-07-03T13:34:31;6.03;;;1.80;;
59271;SDS011;45043;51.068;7.026;2022-07-03T13:37:31;2.90;;;1.70;;
59271;SDS011;45043;51.068;7.026;2022-07-03T13:40:32;4.53;;;1.90;;
59271;SDS011;45043;51.068;7.026;2022-07-03T13:43:34;1.67;;;1.57;;
59271;SDS011;45043;51.068;7.026;2022-07-03T13:46:35;3.03;;;1.70;;
59271;SDS011;45043;51.068;7.026;2022-07-03T13:49:35;2.50;;;1.67;;
59271;SDS011;45043;51.068;7.026;2022-07-03T13:52:36;2.37;;;1.70;;
59271;SDS011;45043;51.068;7.026;2022-07-03T13:55:37;1.83;;;1.63;;
59271;SDS011;45043;51.068;7.026;2022-07-03T13:58:37;2.70;;;1.70;;
59271;SDS011;45043;51.068;7.026;2022-07-03T14:01:38;3.33;;;1.63;;
59271;SDS011;45043;51.068;7.026;2022-07-03T14:04:38;3.83;;;1.80;;
59271;SDS011;45043;51.068;7.026;2022-07-03T14:07:38;2.20;;;1.80;;
59271;SDS011;45043;51.068;7.026;2022-07-03T14:10:39;3.33;;;1.77;;
59271;SDS011;45043;51.068;7.026;2022-07-03T14:13:39;3.13;;;1.80;;
59271;SDS011;45043;51.068;7.026;2022-07-03T14:16:40;3.17;;;1.83;;
59271;SDS011;45043;51.068;7.026;2022-07-03T14:19:40;2.90;;;1.53;;
59271;SDS011;45043;51.068;7.026;2022-07-03T14:22:41;1.87;;;1.50;;
59271;SDS011;45043;51.068;7.026;2022-07-03T14:25:41;2.23;;;1.30;;
59271;SDS011;45043;51.068;7.026;2022-07-03T14:28:42;3.07;;;1.60;;
59271;SDS011;45043;51.068;7.026;2022-07-03T14:32:01;4.67;;;1.50;;
59271;SDS011;45043;51.068;7.026;2022-07-03T14:35:20;4.27;;;1.40;;
59271;SDS011;45043;51.068;7.026;2022-07-03T14:38:20;2.97;;;1.53;;
59271;SDS011;45043;51.068;7.026;2022-07-03T14:41:21;2.73;;;1.23;;
59271;SDS011;45043;51.068;7.026;2022-07-03T14:44:21;1.50;;;1.40;;
59271;SDS011;45043;51.068;7.026;2022-07-03T14:47:24;3.50;;;1.70;;
59271;SDS011;45043;51.068;7.026;2022-07-03T14:50:24;1.77;;;1.30;;
59271;SDS011;45043;51.068;7.026;2022-07-03T14:53:25;4.20;;;1.77;;
59271;SDS011;45043;51.068;7.026;2022-07-03T14:56:25;1.80;;;1.40;;
59271;SDS011;45043;51.068;7.026;2022-07-03T14:59:39;2.93;;;1.60;;
59271;SDS011;45043;51.068;7.026;2022-07-03T15:03:03;3.90;;;1.60;;
59271;SDS011;45043;51.068;7.026;2022-07-03T15:06:10;4.37;;;1.63;;
59271;SDS011;45043;51.068;7.026;2022-07-03T15:09:12;3.10;;;1.60;;
59271;SDS011;45043;51.068;7.026;2022-07-03T15:12:24;4.67;;;1.80;;
59271;SDS011;45043;51.068;7.026;2022-07-03T15:15:29;1.43;;;1.33;;
59271;SDS011;45043;51.068;7.026;2022-07-03T15:18:31;5.70;;;1.60;;
59271;SDS011;45043;51.068;7.026;2022-07-03T15:21:33;1.70;;;1.20;;
59271;SDS011;45043;51.068;7.026;2022-07-03T15:24:36;3.83;;;1.93;;
59271;SDS011;45043;51.068;7.026;2022-07-03T15:27:37;2.00;;;1.57;;
59271;SDS011;45043;51.068;7.026;2022-07-03T15:30:38;1.60;;;1.30;;
59271;SDS011;45043;51.068;7.026;2022-07-03T15:33:52;2.33;;;1.47;;
59271;SDS011;45043;51.068;7.026;2022-07-03T15:40:24;3.67;;;1.30;;
59271;SDS011;45043;51.068;7.026;2022-07-03T15:43:54;1.27;;;1.17;;
59271;SDS011;45043;51.068;7.026;2022-07-03T15:49:58;2.83;;;1.10;;
59271;SDS011;45043;51.068;7.026;2022-07-03T15:53:00;2.20;;;1.30;;
59271;SDS011;45043;51.068;7.026;2022-07-03T15:56:04;2.97;;;1.37;;
59271;SDS011;45043;51.068;7.026;2022-07-03T15:59:06;2.80;;;1.40;;
59271;SDS011;45043;51.068;7.026;2022-07-03T16:02:13;2.50;;;1.30;;
59271;SDS011;45043;51.068;7.026;2022-07-03T16:05:25;1.87;;;1.30;;
59271;SDS011;45043;51.068;7.026;2022-07-03T16:08:29;2.37;;;1.60;;
59271;SDS011;45043;51.068;7.026;2022-07-03T16:11:31;2.07;;;1.60;;
59271;SDS011;45043;51.068;7.026;2022-07-03T16:14:34;1.47;;;1.37;;
59271;SDS011;45043;51.068;7.026;2022-07-03T16:17:35;4.50;;;1.53;;
59271;SDS011;45043;51.068;7.026;2022-07-03T16:20:36;2.93;;;1.90;;
59271;SDS011;45043;51.068;7.026;2022-07-03T16:23:37;2.20;;;1.97;;
59271;SDS011;45043;51.068;7.026;2022-07-03T16:26:38;3.97;;;1.40;;
59271;SDS011;45043;51.068;7.026;2022-07-03T16:29:39;3.17;;;1.73;;
59271;SDS011;45043;51.068;7.026;2022-07-03T16:32:42;1.60;;;1.40;;
59271;SDS011;45043;51.068;7.026;2022-07-03T16:35:45;2.43;;;1.70;;
59271;SDS011;45043;51.068;7.026;2022-07-03T16:42:09;2.13;;;1.30;;
59271;SDS011;45043;51.068;7.026;2022-07-03T16:45:12;3.87;;;1.40;;
59271;SDS011;45043;51.068;7.026;2022-07-03T16:48:14;1.70;;;1.40;;
59271;SDS011;45043;51.068;7.026;2022-07-03T16:51:18;1.77;;;1.50;;
59271;SDS011;45043;51.068;7.026;2022-07-03T16:54:22;4.50;;;1.50;;
59271;SDS011;45043;51.068;7.026;2022-07-03T16:57:23;2.67;;;1.50;;
59271;SDS011;45043;51.068;7.026;2022-07-03T17:00:28;3.03;;;1.70;;
59271;SDS011;45043;51.068;7.026;2022-07-03T17:03:29;3.00;;;1.57;;
59271;SDS011;45043;51.068;7.026;2022-07-03T17:06:30;2.97;;;1.40;;
59271;SDS011;45043;51.068;7.026;2022-07-03T17:09:35;2.60;;;1.40;;
59271;SDS011;45043;51.068;7.026;2022-07-03T17:12:36;2.37;;;1.47;;
59271;SDS011;45043;51.068;7.026;2022-07-03T17:15:38;1.43;;;1.20;;
59271;SDS011;45043;51.068;7.026;2022-07-03T17:18:50;2.43;;;1.50;;
59271;SDS011;45043;51.068;7.026;2022-07-03T17:21:51;1.93;;;1.30;;
59271;SDS011;45043;51.068;7.026;2022-07-03T17:24:55;1.67;;;1.30;;
59271;SDS011;45043;51.068;7.026;2022-07-03T17:27:58;1.33;;;1.20;;
59271;SDS011;45043;51.068;7.026;2022-07-03T17:31:03;2.20;;;1.10;;
59271;SDS011;45043;51.068;7.026;2022-07-03T17:34:05;3.60;;;1.20;;
59271;SDS011;45043;51.068;7.026;2022-07-03T17:37:08;3.57;;;1.30;;
59271;SDS011;45043;51.068;7.026;2022-07-03T17:40:12;2.80;;;1.37;;
59271;SDS011;45043;51.068;7.026;2022-07-03T17:43:14;2.97;;;1.50;;
59271;SDS011;45043;51.068;7.026;2022-07-03T17:46:15;2.63;;;1.30;;
59271;SDS011;45043;51.068;7.026;2022-07-03T17:49:19;2.80;;;1.50;;
59271;SDS011;45043;51.068;7.026;2022-07-03T17:52:20;1.40;;;1.13;;
59271;SDS011;45043;51.068;7.026;2022-07-03T17:55:24;1.87;;;1.10;;
59271;SDS011;45043;51.068;7.026;2022-07-03T17:58:26;2.23;;;0.83;;
59271;SDS011;45043;51.068;7.026;2022-07-03T18:01:27;2.07;;;1.27;;
59271;SDS011;45043;51.068;7.026;2022-07-03T18:04:30;2.60;;;1.23;;
59271;SDS011;45043;51.068;7.026;2022-07-03T18:07:41;2.53;;;1.27;;
59271;SDS011;45043;51.068;7.026;2022-07-03T18:11:00;3.13;;;1.10;;
59271;SDS011;45043;51.068;7.026;2022-07-03T18:14:13;3.90;;;1.40;;
59271;SDS011;45043;51.068;7.026;2022-07-03T18:17:24;3.17;;;1.10;;
59271;SDS011;45043;51.068;7.026;2022-07-03T18:20:32;2.50;;;1.20;;
59271;SDS011;45043;51.068;7.026;2022-07-03T18:23:33;1.90;;;1.13;;
59271;SDS011;45043;51.068;7.026;2022-07-03T18:29:46;1.87;;;0.90;;
59271;SDS011;45043;51.068;7.026;2022-07-03T18:32:48;2.30;;;1.20;;
59271;SDS011;45043;51.068;7.026;2022-07-03T18:35:53;2.90;;;1.40;;
59271;SDS011;45043;51.068;7.026;2022-07-03T18:38:53;3.03;;;1.30;;
59271;SDS011;45043;51.068;7.026;2022-07-03T18:41:55;1.47;;;1.23;;
59271;SDS011;45043;51.068;7.026;2022-07-03T18:44:56;5.47;;;1.20;;
59271;SDS011;45043;51.068;7.026;2022-07-03T18:47:57;2.70;;;1.33;;
59271;SDS011;45043;51.068;7.026;2022-07-03T18:51:10;1.73;;;1.10;;
59271;SDS011;45043;51.068;7.026;2022-07-03T18:54:29;3.13;;;1.50;;
59271;SDS011;45043;51.068;7.026;2022-07-03T18:57:50;2.17;;;1.13;;
59271;SDS011;45043;51.068;7.026;2022-07-03T19:00:55;1.67;;;1.33;;
59271;SDS011;45043;51.068;7.026;2022-07-03T19:04:02;2.63;;;1.43;;
59271;SDS011;45043;51.068;7.026;2022-07-03T19:07:31;2.93;;;1.77;;
59271;SDS011;45043;51.068;7.026;2022-07-03T19:10:48;5.33;;;1.40;;
59271;SDS011;45043;51.068;7.026;2022-07-03T19:14:04;3.30;;;1.60;;
59271;SDS011;45043;51.068;7.026;2022-07-03T19:17:07;2.67;;;1.50;;
59271;SDS011;45043;51.068;7.026;2022-07-03T19:20:10;2.87;;;1.87;;
59271;SDS011;45043;51.068;7.026;2022-07-03T19:23:11;3.23;;;1.50;;
59271;SDS011;45043;51.068;7.026;2022-07-03T19:26:12;2.13;;;1.70;;
59271;SDS011;45043;51.068;7.026;2022-07-03T19:29:14;2.97;;;1.40;;